Time;durP1;ratioP1;P1;durP2;ratioP2;P2;SDS_P1;SDS_P2;PMS_P1;PMS_P2;Temp;Humidity;BMP_temperature;BMP_pressure;BME280_temperature;BME280_humidity;BME280_pressure;Samples;Min_cycle;Max_cycle;Signal;HPM_P1;HPM_P2
2024/04/09 00:01:17;;;;;;;13.73;3.45;;;;;;;;;;2227097;26;20051;-63
2024/04/09 00:02:35;;;;;;;6.78;3.15;;;;;;;;;;2226958;26;20019;-63
2024/04/09 00:03:54;;;;;;;13.00;3.85;;;;;;;;;;2224339;26;20024;-63
2024/04/09 00:05:13;;;;;;;10.40;3.53;;;;;;;;;;2229360;26;20024;-63
2024/04/09 00:06:33;;;;;;;10.45;3.65;;;;;;;;;;2228832;26;20735;-63
2024/04/09 00:07:52;;;;;;;18.10;4.20;;;;;;;;;;2228897;26;20019;-63
2024/04/09 00:09:11;;;;;;;13.90;3.80;;;;;;;;;;2226093;26;20449;-63
2024/04/09 00:10:32;;;;;;;16.30;4.45;;;;;;;;;;2227035;26;20019;-64
2024/04/09 00:11:53;;;;;;;14.63;3.42;;;;;;;;;;2229069;26;20364;-63
2024/04/09 00:13:12;;;;;;;9.68;3.70;;;;;;;;;;2225563;26;20024;-63
2024/04/09 00:14:31;;;;;;;11.10;3.22;;;;;;;;;;2226210;26;20012;-63
2024/04/09 00:15:50;;;;;;;13.20;3.55;;;;;;;;;;2227307;26;20035;-63
2024/04/09 00:17:10;;;;;;;16.90;4.20;;;;;;;;;;2226035;26;20507;-63
2024/04/09 00:18:31;;;;;;;16.45;3.92;;;;;;;;;;2225339;26;20015;-63
2024/04/09 00:19:50;;;;;;;20.50;4.30;;;;;;;;;;2230906;26;20007;-63
2024/04/09 00:21:10;;;;;;;9.02;3.72;;;;;;;;;;2227007;26;20020;-63
2024/04/09 00:22:29;;;;;;;14.63;3.72;;;;;;;;;;2225224;26;20487;-63
2024/04/09 00:23:48;;;;;;;14.57;3.78;;;;;;;;;;2227359;26;20008;-63
2024/04/09 00:25:08;;;;;;;9.70;3.55;;;;;;;;;;2229805;26;21136;-63
2024/04/09 00:26:29;;;;;;;11.23;3.38;;;;;;;;;;2227241;26;20012;-63
2024/04/09 00:27:52;;;;;;;15.80;4.55;;;;;;;;;;2228109;26;20020;-63
2024/04/09 00:29:11;;;;;;;11.40;4.03;;;;;;;;;;2226533;26;20016;-63
2024/04/09 00:30:30;;;;;;;18.55;4.30;;;;;;;;;;2225458;26;20472;-62
2024/04/09 00:31:50;;;;;;;10.63;3.95;;;;;;;;;;2229785;26;20012;-62
2024/04/09 00:33:09;;;;;;;20.80;4.13;;;;;;;;;;2225088;26;20008;-62
2024/04/09 00:34:29;;;;;;;19.65;4.72;;;;;;;;;;2227520;26;20469;-61
2024/04/09 00:35:50;;;;;;;8.73;4.13;;;;;;;;;;2225650;26;20016;-61
2024/04/09 00:37:11;;;;;;;19.05;4.30;;;;;;;;;;2229252;26;20016;-61
2024/04/09 00:38:30;;;;;;;20.30;4.72;;;;;;;;;;2230917;26;20011;-62
2024/04/09 00:39:49;;;;;;;13.57;4.15;;;;;;;;;;2227235;26;20013;-62
2024/04/09 00:41:10;;;;;;;11.70;3.50;;;;;;;;;;2224732;26;20064;-62
2024/04/09 00:42:29;;;;;;;14.18;3.75;;;;;;;;;;2229040;26;20016;-62
2024/04/09 00:43:48;;;;;;;12.98;3.95;;;;;;;;;;2229474;26;20019;-62
2024/04/09 00:45:08;;;;;;;7.07;3.55;;;;;;;;;;2225102;26;20004;-62
2024/04/09 00:46:28;;;;;;;14.13;4.43;;;;;;;;;;2223113;26;20008;-61
2024/04/09 00:47:47;;;;;;;11.25;4.10;;;;;;;;;;2226230;26;20324;-61
2024/04/09 00:49:08;;;;;;;16.40;4.63;;;;;;;;;;2224119;26;20008;-61
2024/04/09 00:50:28;;;;;;;14.07;4.70;;;;;;;;;;2229678;26;20453;-61
2024/04/09 00:51:48;;;;;;;14.82;4.50;;;;;;;;;;2223358;26;20008;-62
2024/04/09 00:53:15;;;;;;;15.25;4.82;;;;;;;;;;2226727;26;20008;-62
2024/04/09 00:54:35;;;;;;;20.70;4.75;;;;;;;;;;2228236;26;20009;-62
2024/04/09 00:55:55;;;;;;;17.20;4.22;;;;;;;;;;2223943;26;20000;-62
2024/04/09 00:57:17;;;;;;;17.17;4.63;;;;;;;;;;2227691;26;20114;-68
2024/04/09 00:58:36;;;;;;;15.75;4.57;;;;;;;;;;2220979;26;20391;-62
2024/04/09 00:59:56;;;;;;;14.30;4.13;;;;;;;;;;2223124;26;20012;-61
2024/04/09 01:01:16;;;;;;;19.58;4.25;;;;;;;;;;2229855;26;20449;-62
2024/04/09 01:02:37;;;;;;;12.15;4.32;;;;;;;;;;2226601;26;20389;-62
2024/04/09 01:03:56;;;;;;;16.58;4.63;;;;;;;;;;2228880;26;20007;-61
2024/04/09 01:05:15;;;;;;;11.30;4.18;;;;;;;;;;2228839;26;20007;-62
2024/04/09 01:06:35;;;;;;;14.40;3.97;;;;;;;;;;2226276;26;20019;-61
2024/04/09 01:07:54;;;;;;;11.23;3.72;;;;;;;;;;2224236;26;20008;-62
2024/04/09 01:09:13;;;;;;;13.13;4.30;;;;;;;;;;2228993;26;20126;-62
2024/04/09 01:10:32;;;;;;;12.00;4.43;;;;;;;;;;2224723;26;20007;-62
2024/04/09 01:11:51;;;;;;;15.05;4.28;;;;;;;;;;2225344;26;20004;-62
2024/04/09 01:13:10;;;;;;;10.70;3.78;;;;;;;;;;2227661;26;20005;-62
2024/04/09 01:14:29;;;;;;;14.80;4.35;;;;;;;;;;2228960;26;20008;-61
2024/04/09 01:15:48;;;;;;;8.15;3.50;;;;;;;;;;2222830;26;20016;-61
2024/04/09 01:17:08;;;;;;;8.70;4.15;;;;;;;;;;2226814;26;20016;-61
2024/04/09 01:18:26;;;;;;;12.68;4.00;;;;;;;;;;2224576;26;20485;-61
2024/04/09 01:19:46;;;;;;;10.75;4.05;;;;;;;;;;2229287;26;20003;-61
2024/04/09 01:21:05;;;;;;;11.85;3.78;;;;;;;;;;2226271;26;20464;-61
2024/04/09 01:22:35;;;;;;;15.75;3.70;;;;;;;;;;2228948;26;20003;-61
2024/04/09 01:23:54;;;;;;;13.38;3.83;;;;;;;;;;2227194;26;20011;-61
2024/04/09 01:25:14;;;;;;;14.35;3.80;;;;;;;;;;2228761;26;20005;-61
2024/04/09 01:26:34;;;;;;;11.18;3.60;;;;;;;;;;2228811;26;20011;-62
2024/04/09 01:27:54;;;;;;;7.90;3.97;;;;;;;;;;2229803;26;20005;-62
2024/04/09 01:29:14;;;;;;;17.85;4.50;;;;;;;;;;2228050;26;20015;-61
2024/04/09 01:30:33;;;;;;;19.70;3.72;;;;;;;;;;2227310;26;20004;-61
2024/04/09 01:31:52;;;;;;;9.48;4.05;;;;;;;;;;2229134;26;20488;-61
2024/04/09 01:33:12;;;;;;;14.35;3.78;;;;;;;;;;2229262;26;20020;-61
2024/04/09 01:34:31;;;;;;;11.68;4.32;;;;;;;;;;2227219;26;20011;-61
2024/04/09 01:35:50;;;;;;;14.68;4.07;;;;;;;;;;2225081;26;20590;-63
2024/04/09 01:37:11;;;;;;;13.45;4.13;;;;;;;;;;2228730;26;20008;-61
2024/04/09 01:38:31;;;;;;;13.27;4.13;;;;;;;;;;2230055;26;20066;-62
2024/04/09 01:39:50;;;;;;;18.00;4.35;;;;;;;;;;2226718;26;20003;-61
2024/04/09 01:41:09;;;;;;;11.90;3.83;;;;;;;;;;2226462;26;20044;-62
2024/04/09 01:42:28;;;;;;;13.90;4.22;;;;;;;;;;2229266;26;20470;-61
2024/04/09 01:43:47;;;;;;;16.40;4.38;;;;;;;;;;2229834;26;20011;-61
2024/04/09 01:45:06;;;;;;;15.43;4.65;;;;;;;;;;2227387;26;20001;-61
2024/04/09 01:46:25;;;;;;;11.50;4.07;;;;;;;;;;2228449;26;20007;-61
2024/04/09 01:47:44;;;;;;;8.57;4.00;;;;;;;;;;2228217;26;20016;-61
2024/04/09 01:49:04;;;;;;;13.35;4.10;;;;;;;;;;2224523;26;20016;-61
2024/04/09 01:50:22;;;;;;;20.45;4.43;;;;;;;;;;2227231;26;20396;-61
2024/04/09 01:51:41;;;;;;;15.38;4.07;;;;;;;;;;2229220;26;20468;-61
2024/04/09 01:53:00;;;;;;;13.70;3.40;;;;;;;;;;2229369;26;20004;-61
2024/04/09 01:54:19;;;;;;;10.60;4.05;;;;;;;;;;2227059;26;20024;-61
2024/04/09 01:55:38;;;;;;;20.05;4.47;;;;;;;;;;2227967;26;20004;-61
2024/04/09 01:56:57;;;;;;;22.67;4.13;;;;;;;;;;2229622;26;20008;-61
2024/04/09 01:58:18;;;;;;;10.10;3.60;;;;;;;;;;2225861;26;20000;-62
2024/04/09 01:59:38;;;;;;;8.68;3.47;;;;;;;;;;2227903;26;20356;-64
2024/04/09 02:00:57;;;;;;;9.25;3.55;;;;;;;;;;2224468;26;20003;-61
2024/04/09 02:02:16;;;;;;;10.93;3.55;;;;;;;;;;2225356;26;20043;-61
2024/04/09 02:03:36;;;;;;;8.75;3.70;;;;;;;;;;2219259;26;20016;-61
2024/04/09 02:04:55;;;;;;;14.75;3.80;;;;;;;;;;2225468;26;20008;-62
2024/04/09 02:06:16;;;;;;;9.15;4.13;;;;;;;;;;2219176;26;20004;-62
2024/04/09 02:07:35;;;;;;;15.82;4.15;;;;;;;;;;2228891;26;20016;-61
2024/04/09 02:08:54;;;;;;;11.68;3.70;;;;;;;;;;2228268;26;20039;-62
2024/04/09 02:10:14;;;;;;;11.93;3.95;;;;;;;;;;2224762;26;20004;-62
2024/04/09 02:11:33;;;;;;;11.20;4.13;;;;;;;;;;2227608;26;20411;-62
2024/04/09 02:12:52;;;;;;;10.48;3.88;;;;;;;;;;2227493;26;20003;-61
2024/04/09 02:14:12;;;;;;;17.67;4.05;;;;;;;;;;2229379;26;20418;-65
2024/04/09 02:15:31;;;;;;;17.35;4.43;;;;;;;;;;2227668;26;20016;-61
2024/04/09 02:16:50;;;;;;;20.92;3.92;;;;;;;;;;2222021;26;20008;-63
2024/04/09 02:18:10;;;;;;;16.88;4.20;;;;;;;;;;2228720;26;20512;-61
2024/04/09 02:19:29;;;;;;;13.65;3.42;;;;;;;;;;2227689;26;20023;-61
2024/04/09 02:20:48;;;;;;;16.55;4.03;;;;;;;;;;2228068;26;20772;-61
2024/04/09 02:22:07;;;;;;;15.75;3.33;;;;;;;;;;2224882;26;20004;-61
2024/04/09 02:23:27;;;;;;;15.55;3.50;;;;;;;;;;2231132;26;20027;-61
2024/04/09 02:24:46;;;;;;;13.73;3.22;;;;;;;;;;2229274;26;20019;-61
2024/04/09 02:26:06;;;;;;;15.07;3.60;;;;;;;;;;2227833;26;20047;-61
2024/04/09 02:27:25;;;;;;;20.50;3.88;;;;;;;;;;2227807;26;20004;-61
2024/04/09 02:28:44;;;;;;;15.93;3.25;;;;;;;;;;2229254;26;20425;-61
2024/04/09 02:30:03;;;;;;;20.30;3.83;;;;;;;;;;2225015;26;20328;-61
2024/04/09 02:31:22;;;;;;;11.80;3.90;;;;;;;;;;2228220;26;20008;-61
2024/04/09 02:32:41;;;;;;;17.83;3.95;;;;;;;;;;2228258;26;20130;-62
2024/04/09 02:34:00;;;;;;;18.83;3.80;;;;;;;;;;2225735;26;20821;-62
2024/04/09 02:35:19;;;;;;;11.63;3.85;;;;;;;;;;2230031;26;20477;-62
2024/04/09 02:36:38;;;;;;;24.38;3.97;;;;;;;;;;2231517;26;20008;-62
2024/04/09 02:37:58;;;;;;;17.40;3.95;;;;;;;;;;2228014;26;20016;-62
2024/04/09 02:39:18;;;;;;;12.95;4.13;;;;;;;;;;2227837;26;20013;-61
2024/04/09 02:40:37;;;;;;;9.20;3.45;;;;;;;;;;2229638;26;20012;-62
2024/04/09 02:41:56;;;;;;;18.73;3.88;;;;;;;;;;2226489;26;20004;-61
2024/04/09 02:43:15;;;;;;;8.27;3.22;;;;;;;;;;2230118;26;20012;-62
2024/04/09 02:44:34;;;;;;;11.45;3.58;;;;;;;;;;2227929;26;20023;-61
2024/04/09 02:45:54;;;;;;;9.60;3.50;;;;;;;;;;2228175;26;20004;-61
2024/04/09 02:47:13;;;;;;;13.20;3.22;;;;;;;;;;2225900;26;20019;-61
2024/04/09 02:48:32;;;;;;;11.25;3.85;;;;;;;;;;2226393;26;20008;-62
2024/04/09 02:49:52;;;;;;;12.57;3.72;;;;;;;;;;2227166;26;20008;-61
2024/04/09 02:51:11;;;;;;;11.80;3.40;;;;;;;;;;2227940;26;20012;-60
2024/04/09 02:52:30;;;;;;;12.43;3.33;;;;;;;;;;2227875;26;20012;-61
2024/04/09 02:53:50;;;;;;;14.30;3.50;;;;;;;;;;2227923;26;20007;-61
2024/04/09 02:55:09;;;;;;;17.42;3.75;;;;;;;;;;2228072;26;20028;-61
2024/04/09 02:56:27;;;;;;;13.70;4.45;;;;;;;;;;2224707;26;20012;-61
2024/04/09 02:57:48;;;;;;;16.02;4.40;;;;;;;;;;2226253;26;20012;-61
2024/04/09 02:59:07;;;;;;;7.72;2.95;;;;;;;;;;2229783;26;20020;-61
2024/04/09 03:00:28;;;;;;;7.43;3.30;;;;;;;;;;2224151;26;20461;-62
2024/04/09 03:01:48;;;;;;;11.20;3.40;;;;;;;;;;2228480;26;20011;-62
2024/04/09 03:03:07;;;;;;;8.55;3.42;;;;;;;;;;2230077;26;20004;-63
2024/04/09 03:04:25;;;;;;;13.38;3.63;;;;;;;;;;2230009;26;20360;-61
2024/04/09 03:05:45;;;;;;;11.70;3.13;;;;;;;;;;2228699;26;20364;-62
2024/04/09 03:07:04;;;;;;;15.35;4.13;;;;;;;;;;2225956;26;20032;-62
2024/04/09 03:08:23;;;;;;;14.20;4.15;;;;;;;;;;2228977;26;20007;-62
2024/04/09 03:09:42;;;;;;;12.88;3.30;;;;;;;;;;2229936;26;20465;-62
2024/04/09 03:11:01;;;;;;;12.48;3.03;;;;;;;;;;2226757;26;20004;-62
2024/04/09 03:12:20;;;;;;;14.23;3.35;;;;;;;;;;2226797;26;20016;-62
2024/04/09 03:13:43;;;;;;;13.88;3.92;;;;;;;;;;2228641;26;20028;-62
2024/04/09 03:15:01;;;;;;;20.40;4.00;;;;;;;;;;2229858;26;20016;-61
2024/04/09 03:16:21;;;;;;;15.88;3.97;;;;;;;;;;2229655;26;20008;-62
2024/04/09 03:17:41;;;;;;;9.13;3.80;;;;;;;;;;2228173;26;20011;-61
2024/04/09 03:19:00;;;;;;;13.38;4.22;;;;;;;;;;2228501;26;20012;-61
2024/04/09 03:20:19;;;;;;;14.50;3.97;;;;;;;;;;2228084;26;20135;-62
2024/04/09 03:21:38;;;;;;;18.23;4.43;;;;;;;;;;2228426;26;20012;-61
2024/04/09 03:22:57;;;;;;;10.38;4.40;;;;;;;;;;2230079;26;20015;-62
2024/04/09 03:24:16;;;;;;;16.38;4.07;;;;;;;;;;2230068;26;20008;-62
2024/04/09 03:25:35;;;;;;;9.63;3.22;;;;;;;;;;2227508;26;20019;-62
2024/04/09 03:26:54;;;;;;;16.10;4.15;;;;;;;;;;2227496;26;20048;-62
2024/04/09 03:28:13;;;;;;;9.75;4.10;;;;;;;;;;2227106;26;20011;-62
2024/04/09 03:29:32;;;;;;;9.48;3.42;;;;;;;;;;2223950;26;20528;-62
2024/04/09 03:30:55;;;;;;;13.80;3.63;;;;;;;;;;2228609;26;20008;-62
2024/04/09 03:32:14;;;;;;;13.27;3.65;;;;;;;;;;2228356;26;20004;-62
2024/04/09 03:33:33;;;;;;;9.63;3.42;;;;;;;;;;2229220;26;20318;-62
2024/04/09 03:34:52;;;;;;;5.57;2.95;;;;;;;;;;2227162;26;20146;-62
2024/04/09 03:36:11;;;;;;;11.57;3.35;;;;;;;;;;2230690;26;20099;-63
2024/04/09 03:37:30;;;;;;;8.00;3.67;;;;;;;;;;2229211;26;20036;-62
2024/04/09 03:38:49;;;;;;;11.18;3.13;;;;;;;;;;2225848;26;20015;-62
2024/04/09 03:40:09;;;;;;;12.40;3.08;;;;;;;;;;2226935;26;20008;-62
2024/04/09 03:41:29;;;;;;;11.82;3.80;;;;;;;;;;2230086;26;20049;-61
2024/04/09 03:42:48;;;;;;;13.98;3.90;;;;;;;;;;2229546;26;20004;-62
2024/04/09 03:44:07;;;;;;;15.13;3.88;;;;;;;;;;2227421;26;20356;-62
2024/04/09 03:45:26;;;;;;;20.33;4.10;;;;;;;;;;2228846;26;20016;-62
2024/04/09 03:46:45;;;;;;;11.85;4.78;;;;;;;;;;2230443;26;20406;-62
2024/04/09 03:48:04;;;;;;;14.07;4.60;;;;;;;;;;2229253;26;20003;-62
2024/04/09 03:49:23;;;;;;;12.82;4.30;;;;;;;;;;2229246;26;20015;-63
2024/04/09 03:50:42;;;;;;;22.00;4.28;;;;;;;;;;2229076;26;20003;-62
2024/04/09 03:52:01;;;;;;;9.95;4.32;;;;;;;;;;2230239;26;20449;-63
2024/04/09 03:53:20;;;;;;;14.02;4.70;;;;;;;;;;2229406;26;20145;-62
2024/04/09 03:54:39;;;;;;;6.80;3.90;;;;;;;;;;2228907;26;20013;-62
2024/04/09 03:56:00;;;;;;;15.25;4.15;;;;;;;;;;2228319;26;20024;-62
2024/04/09 03:57:19;;;;;;;8.48;3.83;;;;;;;;;;2229464;26;20036;-62
2024/04/09 03:58:39;;;;;;;12.20;4.63;;;;;;;;;;2229686;26;20004;-62
2024/04/09 03:59:57;;;;;;;15.52;4.85;;;;;;;;;;2224374;26;20004;-62
2024/04/09 04:01:17;;;;;;;16.92;4.97;;;;;;;;;;2230580;26;20426;-62
2024/04/09 04:02:36;;;;;;;17.65;4.78;;;;;;;;;;2230022;26;20020;-62
2024/04/09 04:03:55;;;;;;;14.65;4.65;;;;;;;;;;2227848;26;20004;-62
2024/04/09 04:05:14;;;;;;;14.38;4.35;;;;;;;;;;2229434;26;20008;-63
2024/04/09 04:06:33;;;;;;;10.35;4.25;;;;;;;;;;2223535;26;20040;-62
2024/04/09 04:07:52;;;;;;;13.20;4.25;;;;;;;;;;2226614;26;20007;-62
2024/04/09 04:09:11;;;;;;;16.98;4.82;;;;;;;;;;2226841;26;20345;-62
2024/04/09 04:10:30;;;;;;;19.90;5.13;;;;;;;;;;2226119;26;20047;-62
2024/04/09 04:11:50;;;;;;;15.70;4.63;;;;;;;;;;2226496;26;20012;-62
2024/04/09 04:13:09;;;;;;;24.60;5.13;;;;;;;;;;2227867;26;20020;-62
2024/04/09 04:14:28;;;;;;;18.33;4.85;;;;;;;;;;2230424;26;20015;-64
2024/04/09 04:15:55;;;;;;;20.48;4.93;;;;;;;;;;2229399;26;20019;-62
2024/04/09 04:17:14;;;;;;;20.45;5.53;;;;;;;;;;2224134;26;20012;-62
2024/04/09 04:18:37;;;;;;;17.13;4.35;;;;;;;;;;2227901;26;20384;-64
2024/04/09 04:19:56;;;;;;;21.98;4.57;;;;;;;;;;2227839;26;20008;-62
2024/04/09 04:21:16;;;;;;;25.75;4.45;;;;;;;;;;2229787;26;20011;-63
2024/04/09 04:22:35;;;;;;;13.27;4.38;;;;;;;;;;2227423;26;20007;-62
2024/04/09 04:23:55;;;;;;;10.15;3.75;;;;;;;;;;2228526;26;20020;-62
2024/04/09 04:25:14;;;;;;;14.73;4.00;;;;;;;;;;2226813;26;20004;-62
2024/04/09 04:26:33;;;;;;;22.33;4.38;;;;;;;;;;2227635;26;20453;-63
2024/04/09 04:27:52;;;;;;;11.43;3.70;;;;;;;;;;2226694;26;20419;-64
2024/04/09 04:29:11;;;;;;;24.70;4.60;;;;;;;;;;2230206;26;20016;-62
2024/04/09 04:30:30;;;;;;;12.00;3.67;;;;;;;;;;2227173;26;20008;-63
2024/04/09 04:31:49;;;;;;;12.75;4.63;;;;;;;;;;2227965;26;20020;-63
2024/04/09 04:33:08;;;;;;;14.52;4.40;;;;;;;;;;2223209;26;20004;-62
2024/04/09 04:34:27;;;;;;;15.20;4.35;;;;;;;;;;2225023;26;20023;-62
2024/04/09 04:35:46;;;;;;;9.82;4.57;;;;;;;;;;2220981;26;19997;-65
2024/04/09 04:37:05;;;;;;;12.32;4.75;;;;;;;;;;2225294;26;20027;-62
2024/04/09 04:38:24;;;;;;;22.58;4.38;;;;;;;;;;2224651;26;20008;-62
2024/04/09 04:39:43;;;;;;;14.73;4.70;;;;;;;;;;2224656;26;21381;-62
2024/04/09 04:41:02;;;;;;;16.00;4.63;;;;;;;;;;2225394;26;20382;-62
2024/04/09 04:42:22;;;;;;;16.48;5.35;;;;;;;;;;2226821;26;20015;-62
2024/04/09 04:43:41;;;;;;;19.92;5.20;;;;;;;;;;2228312;26;20008;-62
2024/04/09 04:45:00;;;;;;;16.58;4.88;;;;;;;;;;2228563;26;20123;-62
2024/04/09 04:46:19;;;;;;;25.77;5.35;;;;;;;;;;2228747;26;20405;-62
2024/04/09 04:47:38;;;;;;;20.13;5.43;;;;;;;;;;2222774;26;20004;-62
2024/04/09 04:48:57;;;;;;;13.18;4.63;;;;;;;;;;2227391;26;20031;-62
2024/04/09 04:50:16;;;;;;;19.17;4.82;;;;;;;;;;2227580;26;20004;-62
2024/04/09 04:51:35;;;;;;;21.17;5.20;;;;;;;;;;2229819;26;20019;-63
2024/04/09 04:52:54;;;;;;;22.02;5.15;;;;;;;;;;2226403;26;20011;-62
2024/04/09 04:54:13;;;;;;;19.23;5.25;;;;;;;;;;2227169;26;20008;-62
2024/04/09 04:55:32;;;;;;;13.43;5.55;;;;;;;;;;2227745;26;20459;-62
2024/04/09 04:56:51;;;;;;;16.30;5.22;;;;;;;;;;2227328;26;20000;-62
2024/04/09 04:58:10;;;;;;;31.67;5.95;;;;;;;;;;2227483;26;20007;-62
2024/04/09 04:59:29;;;;;;;22.02;5.10;;;;;;;;;;2230477;26;20535;-62
2024/04/09 05:00:49;;;;;;;18.30;4.88;;;;;;;;;;2228498;26;20474;-62
2024/04/09 05:02:08;;;;;;;22.30;5.57;;;;;;;;;;2226811;26;20024;-63
2024/04/09 05:03:27;;;;;;;27.40;5.60;;;;;;;;;;2226558;26;20024;-63
2024/04/09 05:04:53;;;;;;;21.75;5.53;;;;;;;;;;2225078;26;20008;-63
2024/04/09 05:06:12;;;;;;;17.98;4.78;;;;;;;;;;2224953;26;20008;-62
2024/04/09 05:07:31;;;;;;;17.55;4.28;;;;;;;;;;2221188;26;20008;-62
2024/04/09 05:08:51;;;;;;;18.83;4.78;;;;;;;;;;2225761;26;20009;-62
2024/04/09 05:10:12;;;;;;;16.98;4.63;;;;;;;;;;2228830;26;20004;-65
2024/04/09 05:11:32;;;;;;;15.18;4.80;;;;;;;;;;2228058;26;20004;-62
2024/04/09 05:12:51;;;;;;;16.15;5.47;;;;;;;;;;2229399;26;20008;-63
2024/04/09 05:14:11;;;;;;;14.45;5.30;;;;;;;;;;2227659;26;20004;-63
2024/04/09 05:15:30;;;;;;;23.75;6.68;;;;;;;;;;2227865;26;20005;-61
2024/04/09 05:16:49;;;;;;;19.08;6.20;;;;;;;;;;2226419;26;20004;-61
2024/04/09 05:18:08;;;;;;;20.23;5.65;;;;;;;;;;2225944;26;20036;-61
2024/04/09 05:19:27;;;;;;;15.63;5.43;;;;;;;;;;2227407;26;20008;-62
2024/04/09 05:20:48;;;;;;;15.27;5.40;;;;;;;;;;2228468;26;20458;-61
2024/04/09 05:22:09;;;;;;;10.88;4.25;;;;;;;;;;2227558;26;20007;-62
2024/04/09 05:23:28;;;;;;;11.75;4.85;;;;;;;;;;2230856;26;20055;-62
2024/04/09 05:24:47;;;;;;;15.30;4.93;;;;;;;;;;2221710;26;20020;-62
2024/04/09 05:26:07;;;;;;;20.30;4.72;;;;;;;;;;2228119;26;20106;-62
2024/04/09 05:27:26;;;;;;;9.90;4.63;;;;;;;;;;2226182;26;20016;-62
2024/04/09 05:28:45;;;;;;;20.88;5.18;;;;;;;;;;2224755;26;20509;-62
2024/04/09 05:30:05;;;;;;;16.20;5.28;;;;;;;;;;2229288;26;20468;-62
2024/04/09 05:31:24;;;;;;;10.75;4.95;;;;;;;;;;2227608;26;20060;-62
2024/04/09 05:32:43;;;;;;;22.20;5.35;;;;;;;;;;2226991;26;20004;-62
2024/04/09 05:34:03;;;;;;;8.23;4.28;;;;;;;;;;2227744;26;20024;-61
2024/04/09 05:35:22;;;;;;;13.63;4.50;;;;;;;;;;2220979;26;20395;-61
2024/04/09 05:36:41;;;;;;;10.40;4.82;;;;;;;;;;2223443;26;20031;-61
2024/04/09 05:38:00;;;;;;;19.10;4.97;;;;;;;;;;2227506;26;20020;-62
2024/04/09 05:39:20;;;;;;;21.02;5.00;;;;;;;;;;2227586;26;20012;-61
2024/04/09 05:40:39;;;;;;;18.10;5.00;;;;;;;;;;2226540;26;20432;-61
2024/04/09 05:41:58;;;;;;;20.25;5.03;;;;;;;;;;2228456;26;20012;-61
2024/04/09 05:43:18;;;;;;;15.63;4.68;;;;;;;;;;2230497;26;20163;-61
2024/04/09 05:44:38;;;;;;;17.17;5.13;;;;;;;;;;2225847;26;20020;-62
2024/04/09 05:45:57;;;;;;;15.38;4.65;;;;;;;;;;2231826;26;20012;-61
2024/04/09 05:47:19;;;;;;;19.73;5.40;;;;;;;;;;2225720;26;20357;-62
2024/04/09 05:48:38;;;;;;;18.20;4.80;;;;;;;;;;2228578;26;20449;-62
2024/04/09 05:49:57;;;;;;;18.27;4.60;;;;;;;;;;2229406;26;20019;-61
2024/04/09 05:51:17;;;;;;;21.98;5.80;;;;;;;;;;2228209;26;20007;-62
2024/04/09 05:52:36;;;;;;;11.85;4.95;;;;;;;;;;2223856;26;20008;-62
2024/04/09 05:53:55;;;;;;;17.92;4.95;;;;;;;;;;2211938;26;20052;-63
2024/04/09 05:55:14;;;;;;;17.92;5.72;;;;;;;;;;2210208;26;20020;-62
2024/04/09 05:56:33;;;;;;;24.95;5.63;;;;;;;;;;2223680;26;20051;-62
2024/04/09 05:57:52;;;;;;;17.13;5.10;;;;;;;;;;2217380;26;20055;-61
2024/04/09 05:59:12;;;;;;;25.27;5.93;;;;;;;;;;2213577;26;20008;-62
2024/04/09 06:00:31;;;;;;;22.73;5.57;;;;;;;;;;2212202;26;20091;-62
2024/04/09 06:01:56;;;;;;;23.58;4.82;;;;;;;;;;2210510;26;20368;-60
2024/04/09 06:03:15;;;;;;;9.52;4.57;;;;;;;;;;2214039;26;20016;-62
2024/04/09 06:04:34;;;;;;;21.80;6.00;;;;;;;;;;2214599;26;20012;-62
2024/04/09 06:05:55;;;;;;;18.60;5.97;;;;;;;;;;2214262;26;20016;-63
2024/04/09 06:07:14;;;;;;;13.07;5.65;;;;;;;;;;2213796;26;20398;-62
2024/04/09 06:08:33;;;;;;;19.38;5.63;;;;;;;;;;2218671;26;21319;-62
2024/04/09 06:09:52;;;;;;;27.27;6.22;;;;;;;;;;2214285;26;20004;-62
2024/04/09 06:11:11;;;;;;;15.27;5.63;;;;;;;;;;2213482;26;20669;-62
2024/04/09 06:12:30;;;;;;;21.05;6.53;;;;;;;;;;2213936;26;22442;-62
2024/04/09 06:13:56;;;;;;;15.38;5.72;;;;;;;;;;2215509;26;20399;-62
2024/04/09 06:15:16;;;;;;;18.40;5.47;;;;;;;;;;2213935;26;20219;-62
2024/04/09 06:16:35;;;;;;;26.17;5.55;;;;;;;;;;2213813;26;20016;-62
2024/04/09 06:17:54;;;;;;;18.95;5.85;;;;;;;;;;2215706;26;20011;-61
2024/04/09 06:19:13;;;;;;;14.38;5.03;;;;;;;;;;2212832;26;20023;-62
2024/04/09 06:20:32;;;;;;;21.42;5.57;;;;;;;;;;2216203;26;20066;-62
2024/04/09 06:21:51;;;;;;;14.23;5.00;;;;;;;;;;2214890;26;20475;-62
2024/04/09 06:23:10;;;;;;;17.33;5.75;;;;;;;;;;2220676;26;20012;-62
2024/04/09 06:24:29;;;;;;;19.02;6.55;;;;;;;;;;2225001;26;20015;-62
2024/04/09 06:25:55;;;;;;;15.65;5.63;;;;;;;;;;2213121;26;20008;-61
2024/04/09 06:27:14;;;;;;;20.15;6.03;;;;;;;;;;2216160;26;20016;-62
2024/04/09 06:28:33;;;;;;;23.00;5.78;;;;;;;;;;2215551;26;20012;-62
2024/04/09 06:29:53;;;;;;;16.77;4.82;;;;;;;;;;2216087;26;20008;-62
2024/04/09 06:31:12;;;;;;;17.98;5.72;;;;;;;;;;2214733;26;20046;-62
2024/04/09 06:32:31;;;;;;;20.25;5.38;;;;;;;;;;2215840;26;20135;-62
2024/04/09 06:33:51;;;;;;;15.88;4.60;;;;;;;;;;2214800;26;22122;-62
2024/04/09 06:35:11;;;;;;;18.08;5.38;;;;;;;;;;2212014;26;20024;-62
2024/04/09 06:36:30;;;;;;;18.95;5.22;;;;;;;;;;2213014;26;20460;-62
2024/04/09 06:37:49;;;;;;;26.70;5.90;;;;;;;;;;2216899;26;20005;-62
2024/04/09 06:39:08;;;;;;;21.23;5.20;;;;;;;;;;2215187;26;20067;-62
2024/04/09 06:40:27;;;;;;;12.13;4.47;;;;;;;;;;2214841;26;20000;-62
2024/04/09 06:41:46;;;;;;;18.73;5.40;;;;;;;;;;2213509;26;20022;-65
2024/04/09 06:43:05;;;;;;;11.68;5.30;;;;;;;;;;2216247;26;20000;-62
2024/04/09 06:44:24;;;;;;;15.82;4.90;;;;;;;;;;2222125;26;20001;-62
2024/04/09 06:45:43;;;;;;;15.75;5.93;;;;;;;;;;2230199;26;20008;-62
2024/04/09 06:47:03;;;;;;;19.00;5.15;;;;;;;;;;2222550;26;20008;-62
2024/04/09 06:48:22;;;;;;;13.20;5.40;;;;;;;;;;2215887;26;20363;-62
2024/04/09 06:49:43;;;;;;;16.80;6.78;;;;;;;;;;2214225;26;20008;-62
2024/04/09 06:51:02;;;;;;;24.58;9.15;;;;;;;;;;2214994;26;20457;-62
2024/04/09 06:52:21;;;;;;;19.95;8.55;;;;;;;;;;2213069;26;20015;-62
2024/04/09 06:53:40;;;;;;;18.27;8.18;;;;;;;;;;2215765;26;20000;-62
2024/04/09 06:54:59;;;;;;;16.10;7.25;;;;;;;;;;2214723;26;20624;-62
2024/04/09 06:56:18;;;;;;;19.40;8.45;;;;;;;;;;2214455;26;20811;-62
2024/04/09 06:57:38;;;;;;;13.25;6.97;;;;;;;;;;2213024;26;20004;-62
2024/04/09 06:58:58;;;;;;;17.63;7.47;;;;;;;;;;2212775;26;22996;-62
2024/04/09 07:00:17;;;;;;;14.25;7.07;;;;;;;;;;2214036;26;20020;-62
2024/04/09 07:01:36;;;;;;;15.02;6.70;;;;;;;;;;2213855;26;20365;-62
2024/04/09 07:02:57;;;;;;;22.80;7.13;;;;;;;;;;2215152;26;20005;-62
2024/04/09 07:04:17;;;;;;;12.25;6.70;;;;;;;;;;2220187;26;20024;-62
2024/04/09 07:05:36;;;;;;;15.23;6.70;;;;;;;;;;2217407;26;20481;-62
2024/04/09 07:06:55;;;;;;;17.33;6.80;;;;;;;;;;2213443;26;20019;-62
2024/04/09 07:08:14;;;;;;;11.70;5.57;;;;;;;;;;2217196;26;20011;-62
2024/04/09 07:09:33;;;;;;;17.83;5.93;;;;;;;;;;2214648;26;20020;-62
2024/04/09 07:10:53;;;;;;;11.68;5.05;;;;;;;;;;2212724;26;20009;-62
2024/04/09 07:12:12;;;;;;;11.95;4.97;;;;;;;;;;2214625;26;20032;-62
2024/04/09 07:13:31;;;;;;;11.48;4.93;;;;;;;;;;2218474;26;20012;-62
2024/04/09 07:14:50;;;;;;;12.43;4.60;;;;;;;;;;2214416;26;20005;-62
2024/04/09 07:16:09;;;;;;;14.15;4.70;;;;;;;;;;2214734;26;20016;-62
2024/04/09 07:17:28;;;;;;;13.23;4.60;;;;;;;;;;2213406;26;20032;-62
2024/04/09 07:18:48;;;;;;;14.57;4.45;;;;;;;;;;2218047;26;20021;-62
2024/04/09 07:20:08;;;;;;;11.95;4.30;;;;;;;;;;2224118;26;20003;-62
2024/04/09 07:21:27;;;;;;;11.25;4.45;;;;;;;;;;2218683;26;20408;-62
2024/04/09 07:22:46;;;;;;;12.25;4.25;;;;;;;;;;2222708;26;20039;-62
2024/04/09 07:24:06;;;;;;;7.53;3.53;;;;;;;;;;2220567;26;20051;-62
2024/04/09 07:25:27;;;;;;;11.23;3.92;;;;;;;;;;2215905;26;20005;-63
2024/04/09 07:26:46;;;;;;;9.23;4.05;;;;;;;;;;2214174;26;20008;-63
2024/04/09 07:28:05;;;;;;;12.43;4.38;;;;;;;;;;2216117;26;20004;-62
2024/04/09 07:29:24;;;;;;;16.65;3.92;;;;;;;;;;2218244;26;20000;-63
2024/04/09 07:30:42;;;;;;;11.35;3.58;;;;;;;;;;2213837;26;20016;-63
2024/04/09 07:32:02;;;;;;;14.95;4.35;;;;;;;;;;2214037;26;19997;-62
2024/04/09 07:33:21;;;;;;;10.85;3.58;;;;;;;;;;2216122;26;20509;-63
2024/04/09 07:34:43;;;;;;;11.40;3.72;;;;;;;;;;2214880;26;19996;-62
2024/04/09 07:36:03;;;;;;;11.85;4.25;;;;;;;;;;2218510;26;20040;-62
2024/04/09 07:37:22;;;;;;;13.50;4.30;;;;;;;;;;2215010;26;20465;-62
2024/04/09 07:38:41;;;;;;;11.57;4.25;;;;;;;;;;2214579;26;20008;-62
2024/04/09 07:40:00;;;;;;;15.13;4.05;;;;;;;;;;2216162;26;20668;-63
2024/04/09 07:41:22;;;;;;;14.07;4.18;;;;;;;;;;2212494;26;20009;-62
2024/04/09 07:42:41;;;;;;;11.90;4.13;;;;;;;;;;2213811;26;20020;-62
2024/04/09 07:44:00;;;;;;;10.02;4.43;;;;;;;;;;2212907;26;20012;-64
2024/04/09 07:45:19;;;;;;;12.70;3.60;;;;;;;;;;2213444;26;20008;-63
2024/04/09 07:46:40;;;;;;;11.88;4.18;;;;;;;;;;2212935;26;20056;-63
2024/04/09 07:47:59;;;;;;;13.15;3.70;;;;;;;;;;2216904;26;20016;-62
2024/04/09 07:49:18;;;;;;;11.18;3.63;;;;;;;;;;2212487;26;20478;-62
2024/04/09 07:50:38;;;;;;;9.13;3.13;;;;;;;;;;2217312;26;20012;-63